sensor_id;sensor_type;location;lat;lon;timestamp;P1;durP1;ratioP1;P2;durP2;ratioP2
41687;SDS011;27371;42.686;23.362;2024-03-08T00:00:12;2.85;;;0.90;;
41687;SDS011;27371;42.686;23.362;2024-03-08T00:02:39;1.50;;;1.00;;
41687;SDS011;27371;42.686;23.362;2024-03-08T00:05:05;2.65;;;1.40;;
41687;SDS011;27371;42.686;23.362;2024-03-08T00:07:33;2.00;;;1.20;;
41687;SDS011;27371;42.686;23.362;2024-03-08T00:10:05;2.90;;;1.73;;
41687;SDS011;27371;42.686;23.362;2024-03-08T00:12:41;3.88;;;2.28;;
41687;SDS011;27371;42.686;23.362;2024-03-08T00:15:11;3.60;;;2.20;;
41687;SDS011;27371;42.686;23.362;2024-03-08T00:17:39;4.57;;;3.38;;
41687;SDS011;27371;42.686;23.362;2024-03-08T00:20:05;6.10;;;3.45;;
41687;SDS011;27371;42.686;23.362;2024-03-08T00:22:36;4.50;;;3.53;;
41687;SDS011;27371;42.686;23.362;2024-03-08T00:25:03;5.38;;;3.50;;
41687;SDS011;27371;42.686;23.362;2024-03-08T00:27:30;4.75;;;2.88;;
41687;SDS011;27371;42.686;23.362;2024-03-08T00:29:56;2.83;;;1.85;;
41687;SDS011;27371;42.686;23.362;2024-03-08T00:32:24;3.03;;;2.00;;
41687;SDS011;27371;42.686;23.362;2024-03-08T00:34:50;3.60;;;2.35;;
41687;SDS011;27371;42.686;23.362;2024-03-08T00:37:19;1.73;;;1.20;;
41687;SDS011;27371;42.686;23.362;2024-03-08T00:39:47;1.98;;;1.27;;
41687;SDS011;27371;42.686;23.362;2024-03-08T00:42:14;2.58;;;1.10;;
41687;SDS011;27371;42.686;23.362;2024-03-08T00:44:40;1.58;;;1.05;;
41687;SDS011;27371;42.686;23.362;2024-03-08T00:47:06;1.88;;;0.77;;
41687;SDS011;27371;42.686;23.362;2024-03-08T00:49:33;1.67;;;0.75;;
41687;SDS011;27371;42.686;23.362;2024-03-08T00:51:58;0.95;;;0.75;;
41687;SDS011;27371;42.686;23.362;2024-03-08T00:54:24;1.83;;;0.82;;
41687;SDS011;27371;42.686;23.362;2024-03-08T00:56:49;1.23;;;0.90;;
41687;SDS011;27371;42.686;23.362;2024-03-08T00:59:15;1.25;;;0.90;;
41687;SDS011;27371;42.686;23.362;2024-03-08T01:04:15;1.77;;;0.80;;
41687;SDS011;27371;42.686;23.362;2024-03-08T01:06:41;1.20;;;0.80;;
41687;SDS011;27371;42.686;23.362;2024-03-08T01:09:10;1.40;;;0.88;;
41687;SDS011;27371;42.686;23.362;2024-03-08T01:11:36;1.75;;;1.13;;
41687;SDS011;27371;42.686;23.362;2024-03-08T01:14:03;1.42;;;0.73;;
41687;SDS011;27371;42.686;23.362;2024-03-08T01:16:29;1.98;;;1.00;;
41687;SDS011;27371;42.686;23.362;2024-03-08T01:18:54;1.80;;;1.30;;
41687;SDS011;27371;42.686;23.362;2024-03-08T01:21:20;2.72;;;1.70;;
41687;SDS011;27371;42.686;23.362;2024-03-08T01:23:46;1.90;;;1.35;;
41687;SDS011;27371;42.686;23.362;2024-03-08T01:26:11;1.92;;;1.40;;
41687;SDS011;27371;42.686;23.362;2024-03-08T01:28:37;2.00;;;1.40;;
41687;SDS011;27371;42.686;23.362;2024-03-08T01:31:03;1.90;;;1.20;;
41687;SDS011;27371;42.686;23.362;2024-03-08T01:33:29;1.73;;;1.30;;
41687;SDS011;27371;42.686;23.362;2024-03-08T01:35:55;2.42;;;1.30;;
41687;SDS011;27371;42.686;23.362;2024-03-08T01:38:25;3.08;;;1.38;;
41687;SDS011;27371;42.686;23.362;2024-03-08T01:40:50;1.95;;;1.30;;
41687;SDS011;27371;42.686;23.362;2024-03-08T01:45:44;2.42;;;1.15;;
41687;SDS011;27371;42.686;23.362;2024-03-08T01:48:10;2.25;;;1.10;;
41687;SDS011;27371;42.686;23.362;2024-03-08T01:50:37;2.53;;;1.33;;
41687;SDS011;27371;42.686;23.362;2024-03-08T01:53:04;2.05;;;1.38;;
41687;SDS011;27371;42.686;23.362;2024-03-08T01:55:31;1.85;;;1.40;;
41687;SDS011;27371;42.686;23.362;2024-03-08T01:57:57;2.20;;;1.35;;
41687;SDS011;27371;42.686;23.362;2024-03-08T02:00:24;2.47;;;1.48;;
41687;SDS011;27371;42.686;23.362;2024-03-08T02:02:51;2.83;;;1.67;;
41687;SDS011;27371;42.686;23.362;2024-03-08T02:05:19;1.88;;;1.30;;
41687;SDS011;27371;42.686;23.362;2024-03-08T02:07:46;2.00;;;1.48;;
41687;SDS011;27371;42.686;23.362;2024-03-08T02:10:12;2.08;;;1.23;;
41687;SDS011;27371;42.686;23.362;2024-03-08T02:12:38;2.08;;;1.33;;
41687;SDS011;27371;42.686;23.362;2024-03-08T02:15:04;2.28;;;1.40;;
41687;SDS011;27371;42.686;23.362;2024-03-08T02:17:31;2.00;;;1.23;;
41687;SDS011;27371;42.686;23.362;2024-03-08T02:19:58;1.58;;;0.93;;
41687;SDS011;27371;42.686;23.362;2024-03-08T02:22:26;1.65;;;0.73;;
41687;SDS011;27371;42.686;23.362;2024-03-08T02:24:54;1.70;;;0.75;;
41687;SDS011;27371;42.686;23.362;2024-03-08T02:27:23;0.82;;;0.52;;
41687;SDS011;27371;42.686;23.362;2024-03-08T02:29:50;0.98;;;0.63;;
41687;SDS011;27371;42.686;23.362;2024-03-08T02:32:21;2.40;;;1.02;;
41687;SDS011;27371;42.686;23.362;2024-03-08T02:34:47;2.15;;;1.00;;
41687;SDS011;27371;42.686;23.362;2024-03-08T02:37:13;1.90;;;1.02;;
41687;SDS011;27371;42.686;23.362;2024-03-08T02:39:38;2.65;;;1.20;;
41687;SDS011;27371;42.686;23.362;2024-03-08T02:42:04;2.13;;;1.08;;
41687;SDS011;27371;42.686;23.362;2024-03-08T02:44:30;1.38;;;0.75;;
41687;SDS011;27371;42.686;23.362;2024-03-08T02:46:55;1.52;;;1.05;;
41687;SDS011;27371;42.686;23.362;2024-03-08T02:49:21;2.00;;;1.02;;
41687;SDS011;27371;42.686;23.362;2024-03-08T02:51:47;1.15;;;0.90;;
41687;SDS011;27371;42.686;23.362;2024-03-08T02:54:12;1.25;;;0.70;;
41687;SDS011;27371;42.686;23.362;2024-03-08T02:56:38;0.80;;;0.50;;
41687;SDS011;27371;42.686;23.362;2024-03-08T02:59:03;1.02;;;0.50;;
41687;SDS011;27371;42.686;23.362;2024-03-08T03:01:29;0.70;;;0.40;;
41687;SDS011;27371;42.686;23.362;2024-03-08T03:03:55;0.80;;;0.40;;
41687;SDS011;27371;42.686;23.362;2024-03-08T03:06:21;0.38;;;0.38;;
41687;SDS011;27371;42.686;23.362;2024-03-08T03:08:46;0.68;;;0.50;;
41687;SDS011;27371;42.686;23.362;2024-03-08T03:11:12;1.25;;;0.50;;
41687;SDS011;27371;42.686;23.362;2024-03-08T03:13:39;0.40;;;0.38;;
41687;SDS011;27371;42.686;23.362;2024-03-08T03:16:05;1.17;;;0.55;;
41687;SDS011;27371;42.686;23.362;2024-03-08T03:18:30;1.48;;;0.60;;
41687;SDS011;27371;42.686;23.362;2024-03-08T03:20:58;2.78;;;0.60;;
41687;SDS011;27371;42.686;23.362;2024-03-08T03:23:23;0.73;;;0.55;;
41687;SDS011;27371;42.686;23.362;2024-03-08T03:25:51;0.90;;;0.60;;
41687;SDS011;27371;42.686;23.362;2024-03-08T03:28:17;0.77;;;0.50;;
41687;SDS011;27371;42.686;23.362;2024-03-08T03:30:46;1.23;;;0.70;;
41687;SDS011;27371;42.686;23.362;2024-03-08T03:33:12;0.90;;;0.70;;
41687;SDS011;27371;42.686;23.362;2024-03-08T03:35:40;1.17;;;0.57;;
41687;SDS011;27371;42.686;23.362;2024-03-08T03:38:06;0.80;;;0.50;;
41687;SDS011;27371;42.686;23.362;2024-03-08T03:40:35;0.50;;;0.40;;
41687;SDS011;27371;42.686;23.362;2024-03-08T03:43:02;1.20;;;0.60;;
41687;SDS011;27371;42.686;23.362;2024-03-08T03:45:28;1.67;;;0.75;;
41687;SDS011;27371;42.686;23.362;2024-03-08T03:47:54;1.08;;;0.70;;
41687;SDS011;27371;42.686;23.362;2024-03-08T03:50:20;1.65;;;0.80;;
41687;SDS011;27371;42.686;23.362;2024-03-08T03:52:47;0.88;;;0.60;;
41687;SDS011;27371;42.686;23.362;2024-03-08T03:55:13;1.00;;;0.60;;
41687;SDS011;27371;42.686;23.362;2024-03-08T03:57:39;1.63;;;1.10;;
41687;SDS011;27371;42.686;23.362;2024-03-08T04:00:05;2.80;;;0.95;;
41687;SDS011;27371;42.686;23.362;2024-03-08T04:02:35;1.15;;;0.70;;
41687;SDS011;27371;42.686;23.362;2024-03-08T04:05:02;1.75;;;0.70;;
41687;SDS011;27371;42.686;23.362;2024-03-08T04:07:28;1.52;;;0.90;;
41687;SDS011;27371;42.686;23.362;2024-03-08T04:09:54;2.00;;;0.68;;
41687;SDS011;27371;42.686;23.362;2024-03-08T04:12:19;1.83;;;0.80;;
41687;SDS011;27371;42.686;23.362;2024-03-08T04:14:45;1.50;;;0.82;;
41687;SDS011;27371;42.686;23.362;2024-03-08T04:17:10;2.13;;;0.90;;
41687;SDS011;27371;42.686;23.362;2024-03-08T04:19:37;1.38;;;0.90;;
41687;SDS011;27371;42.686;23.362;2024-03-08T04:22:03;2.75;;;1.38;;
41687;SDS011;27371;42.686;23.362;2024-03-08T04:24:28;1.95;;;1.42;;
41687;SDS011;27371;42.686;23.362;2024-03-08T04:26:55;2.30;;;1.20;;
41687;SDS011;27371;42.686;23.362;2024-03-08T04:29:22;2.75;;;1.50;;
41687;SDS011;27371;42.686;23.362;2024-03-08T04:31:48;3.10;;;1.40;;
41687;SDS011;27371;42.686;23.362;2024-03-08T04:34:13;2.45;;;1.05;;
41687;SDS011;27371;42.686;23.362;2024-03-08T04:36:39;2.42;;;1.33;;
41687;SDS011;27371;42.686;23.362;2024-03-08T04:39:05;2.70;;;1.30;;
41687;SDS011;27371;42.686;23.362;2024-03-08T04:41:30;2.90;;;1.40;;
41687;SDS011;27371;42.686;23.362;2024-03-08T04:43:59;3.55;;;1.70;;
41687;SDS011;27371;42.686;23.362;2024-03-08T04:46:24;3.13;;;1.40;;
41687;SDS011;27371;42.686;23.362;2024-03-08T04:48:50;3.05;;;1.52;;
41687;SDS011;27371;42.686;23.362;2024-03-08T04:51:15;2.88;;;1.42;;
41687;SDS011;27371;42.686;23.362;2024-03-08T04:53:41;1.83;;;1.20;;
41687;SDS011;27371;42.686;23.362;2024-03-08T04:56:07;2.17;;;1.50;;
41687;SDS011;27371;42.686;23.362;2024-03-08T04:58:35;2.65;;;1.60;;
41687;SDS011;27371;42.686;23.362;2024-03-08T05:01:01;2.92;;;1.75;;
41687;SDS011;27371;42.686;23.362;2024-03-08T05:03:27;4.53;;;2.60;;
41687;SDS011;27371;42.686;23.362;2024-03-08T05:05:52;2.67;;;1.30;;
41687;SDS011;27371;42.686;23.362;2024-03-08T05:08:18;3.08;;;1.50;;
41687;SDS011;27371;42.686;23.362;2024-03-08T05:10:44;3.83;;;1.70;;
41687;SDS011;27371;42.686;23.362;2024-03-08T05:13:10;4.40;;;1.77;;
41687;SDS011;27371;42.686;23.362;2024-03-08T05:15:38;3.40;;;1.92;;
41687;SDS011;27371;42.686;23.362;2024-03-08T05:18:04;3.40;;;1.70;;
41687;SDS011;27371;42.686;23.362;2024-03-08T05:20:30;2.03;;;1.42;;
41687;SDS011;27371;42.686;23.362;2024-03-08T05:22:56;4.43;;;1.70;;
41687;SDS011;27371;42.686;23.362;2024-03-08T05:25:25;2.22;;;1.45;;
41687;SDS011;27371;42.686;23.362;2024-03-08T05:27:51;2.72;;;1.70;;
41687;SDS011;27371;42.686;23.362;2024-03-08T05:30:17;3.60;;;2.42;;
41687;SDS011;27371;42.686;23.362;2024-03-08T05:32:43;3.83;;;2.70;;
41687;SDS011;27371;42.686;23.362;2024-03-08T05:35:11;5.07;;;3.17;;
41687;SDS011;27371;42.686;23.362;2024-03-08T05:37:37;4.55;;;3.00;;
41687;SDS011;27371;42.686;23.362;2024-03-08T05:40:04;6.75;;;4.10;;
41687;SDS011;27371;42.686;23.362;2024-03-08T05:42:34;5.55;;;3.85;;
41687;SDS011;27371;42.686;23.362;2024-03-08T05:45:02;6.53;;;3.60;;
41687;SDS011;27371;42.686;23.362;2024-03-08T05:47:34;7.22;;;4.53;;
41687;SDS011;27371;42.686;23.362;2024-03-08T05:50:00;9.73;;;4.60;;
41687;SDS011;27371;42.686;23.362;2024-03-08T05:52:26;8.27;;;5.20;;
41687;SDS011;27371;42.686;23.362;2024-03-08T05:54:52;8.13;;;4.85;;
41687;SDS011;27371;42.686;23.362;2024-03-08T05:57:18;7.88;;;5.30;;
41687;SDS011;27371;42.686;23.362;2024-03-08T05:59:44;6.65;;;4.90;;
41687;SDS011;27371;42.686;23.362;2024-03-08T06:02:09;7.82;;;5.38;;
41687;SDS011;27371;42.686;23.362;2024-03-08T06:04:35;10.95;;;6.70;;
41687;SDS011;27371;42.686;23.362;2024-03-08T06:07:00;9.57;;;5.93;;
41687;SDS011;27371;42.686;23.362;2024-03-08T06:09:28;9.10;;;5.10;;
41687;SDS011;27371;42.686;23.362;2024-03-08T06:11:54;9.52;;;5.72;;
41687;SDS011;27371;42.686;23.362;2024-03-08T06:14:19;11.90;;;7.90;;
41687;SDS011;27371;42.686;23.362;2024-03-08T06:16:45;9.93;;;7.05;;
41687;SDS011;27371;42.686;23.362;2024-03-08T06:19:12;11.13;;;7.15;;
41687;SDS011;27371;42.686;23.362;2024-03-08T06:21:38;10.02;;;6.22;;
41687;SDS011;27371;42.686;23.362;2024-03-08T06:24:04;7.05;;;4.57;;
41687;SDS011;27371;42.686;23.362;2024-03-08T06:26:30;6.93;;;4.50;;
41687;SDS011;27371;42.686;23.362;2024-03-08T06:28:56;5.85;;;3.85;;
41687;SDS011;27371;42.686;23.362;2024-03-08T06:31:22;6.13;;;4.00;;
41687;SDS011;27371;42.686;23.362;2024-03-08T06:33:48;4.97;;;3.70;;
41687;SDS011;27371;42.686;23.362;2024-03-08T06:36:17;5.63;;;3.97;;
41687;SDS011;27371;42.686;23.362;2024-03-08T06:38:49;5.32;;;3.80;;
41687;SDS011;27371;42.686;23.362;2024-03-08T06:41:15;5.32;;;3.97;;
41687;SDS011;27371;42.686;23.362;2024-03-08T06:43:44;7.10;;;4.45;;
41687;SDS011;27371;42.686;23.362;2024-03-08T06:46:11;7.38;;;4.50;;
41687;SDS011;27371;42.686;23.362;2024-03-08T06:48:39;6.43;;;4.20;;
41687;SDS011;27371;42.686;23.362;2024-03-08T06:51:05;5.72;;;4.10;;
41687;SDS011;27371;42.686;23.362;2024-03-08T06:53:31;5.32;;;3.55;;
41687;SDS011;27371;42.686;23.362;2024-03-08T06:55:57;6.60;;;3.97;;
41687;SDS011;27371;42.686;23.362;2024-03-08T06:58:23;6.10;;;4.75;;
41687;SDS011;27371;42.686;23.362;2024-03-08T07:00:49;6.18;;;4.43;;
41687;SDS011;27371;42.686;23.362;2024-03-08T07:03:17;5.28;;;3.78;;
41687;SDS011;27371;42.686;23.362;2024-03-08T07:05:43;6.63;;;3.63;;
41687;SDS011;27371;42.686;23.362;2024-03-08T07:08:09;4.28;;;2.92;;
41687;SDS011;27371;42.686;23.362;2024-03-08T07:10:35;6.50;;;3.63;;
41687;SDS011;27371;42.686;23.362;2024-03-08T07:13:02;5.60;;;3.70;;
41687;SDS011;27371;42.686;23.362;2024-03-08T07:15:28;5.68;;;4.07;;
41687;SDS011;27371;42.686;23.362;2024-03-08T07:17:53;7.78;;;4.25;;
41687;SDS011;27371;42.686;23.362;2024-03-08T07:20:32;4.68;;;3.05;;
41687;SDS011;27371;42.686;23.362;2024-03-08T07:22:57;6.82;;;3.58;;
41687;SDS011;27371;42.686;23.362;2024-03-08T07:25:23;5.63;;;3.97;;
41687;SDS011;27371;42.686;23.362;2024-03-08T07:27:54;7.30;;;4.30;;
41687;SDS011;27371;42.686;23.362;2024-03-08T07:30:21;6.07;;;3.60;;
41687;SDS011;27371;42.686;23.362;2024-03-08T07:33:07;5.03;;;3.50;;
41687;SDS011;27371;42.686;23.362;2024-03-08T07:35:33;4.80;;;3.45;;
41687;SDS011;27371;42.686;23.362;2024-03-08T07:38:05;5.13;;;3.83;;
41687;SDS011;27371;42.686;23.362;2024-03-08T07:40:38;6.10;;;4.35;;
41687;SDS011;27371;42.686;23.362;2024-03-08T07:43:08;7.50;;;5.90;;
41687;SDS011;27371;42.686;23.362;2024-03-08T07:45:35;7.68;;;4.63;;
41687;SDS011;27371;42.686;23.362;2024-03-08T07:48:01;7.82;;;5.50;;
41687;SDS011;27371;42.686;23.362;2024-03-08T07:50:28;5.15;;;3.72;;
41687;SDS011;27371;42.686;23.362;2024-03-08T07:52:54;3.92;;;3.10;;
41687;SDS011;27371;42.686;23.362;2024-03-08T07:55:19;5.45;;;3.28;;
41687;SDS011;27371;42.686;23.362;2024-03-08T07:57:45;4.78;;;3.22;;
41687;SDS011;27371;42.686;23.362;2024-03-08T08:00:12;3.95;;;2.75;;
41687;SDS011;27371;42.686;23.362;2024-03-08T08:02:43;4.28;;;3.00;;
41687;SDS011;27371;42.686;23.362;2024-03-08T08:05:11;4.93;;;2.72;;
41687;SDS011;27371;42.686;23.362;2024-03-08T08:07:37;3.85;;;2.55;;
41687;SDS011;27371;42.686;23.362;2024-03-08T08:10:02;3.45;;;2.45;;
41687;SDS011;27371;42.686;23.362;2024-03-08T08:12:31;3.33;;;2.25;;
41687;SDS011;27371;42.686;23.362;2024-03-08T08:14:59;3.08;;;2.08;;
41687;SDS011;27371;42.686;23.362;2024-03-08T08:17:25;3.30;;;2.00;;
41687;SDS011;27371;42.686;23.362;2024-03-08T08:19:50;4.13;;;2.15;;
41687;SDS011;27371;42.686;23.362;2024-03-08T08:22:16;4.35;;;2.45;;
41687;SDS011;27371;42.686;23.362;2024-03-08T08:24:43;3.47;;;2.20;;
41687;SDS011;27371;42.686;23.362;2024-03-08T08:27:08;2.47;;;1.90;;
41687;SDS011;27371;42.686;23.362;2024-03-08T08:29:34;4.68;;;2.28;;
41687;SDS011;27371;42.686;23.362;2024-03-08T08:32:00;2.25;;;1.65;;
41687;SDS011;27371;42.686;23.362;2024-03-08T08:34:26;3.22;;;2.00;;
41687;SDS011;27371;42.686;23.362;2024-03-08T08:36:52;2.88;;;2.20;;
41687;SDS011;27371;42.686;23.362;2024-03-08T08:39:18;3.90;;;2.70;;
41687;SDS011;27371;42.686;23.362;2024-03-08T08:41:44;3.58;;;2.17;;
41687;SDS011;27371;42.686;23.362;2024-03-08T08:44:09;3.15;;;1.70;;
41687;SDS011;27371;42.686;23.362;2024-03-08T08:46:37;2.40;;;1.60;;
41687;SDS011;27371;42.686;23.362;2024-03-08T08:49:06;3.03;;;1.70;;
41687;SDS011;27371;42.686;23.362;2024-03-08T08:51:35;2.88;;;1.88;;
41687;SDS011;27371;42.686;23.362;2024-03-08T08:54:04;2.33;;;1.58;;
41687;SDS011;27371;42.686;23.362;2024-03-08T08:56:31;2.75;;;1.30;;
41687;SDS011;27371;42.686;23.362;2024-03-08T08:58:58;4.03;;;1.65;;
41687;SDS011;27371;42.686;23.362;2024-03-08T09:01:23;2.90;;;1.65;;
41687;SDS011;27371;42.686;23.362;2024-03-08T09:03:49;7.25;;;2.40;;
41687;SDS011;27371;42.686;23.362;2024-03-08T09:06:15;2.72;;;1.88;;
41687;SDS011;27371;42.686;23.362;2024-03-08T09:08:41;4.35;;;1.92;;
41687;SDS011;27371;42.686;23.362;2024-03-08T09:11:09;4.30;;;2.20;;
41687;SDS011;27371;42.686;23.362;2024-03-08T09:13:35;1.95;;;1.52;;
41687;SDS011;27371;42.686;23.362;2024-03-08T09:16:01;2.92;;;2.00;;
41687;SDS011;27371;42.686;23.362;2024-03-08T09:18:28;3.38;;;1.50;;
41687;SDS011;27371;42.686;23.362;2024-03-08T09:20:54;3.00;;;1.80;;
41687;SDS011;27371;42.686;23.362;2024-03-08T09:23:20;4.22;;;1.80;;
41687;SDS011;27371;42.686;23.362;2024-03-08T09:25:45;2.83;;;1.92;;
41687;SDS011;27371;42.686;23.362;2024-03-08T09:28:11;3.35;;;1.80;;
41687;SDS011;27371;42.686;23.362;2024-03-08T09:30:38;2.63;;;1.42;;
41687;SDS011;27371;42.686;23.362;2024-03-08T09:33:04;2.55;;;1.40;;
41687;SDS011;27371;42.686;23.362;2024-03-08T09:35:31;3.05;;;2.15;;
41687;SDS011;27371;42.686;23.362;2024-03-08T09:37:56;2.38;;;1.55;;
41687;SDS011;27371;42.686;23.362;2024-03-08T09:40:22;3.40;;;1.33;;
41687;SDS011;27371;42.686;23.362;2024-03-08T09:42:50;2.25;;;1.40;;
41687;SDS011;27371;42.686;23.362;2024-03-08T09:45:17;1.63;;;1.10;;
41687;SDS011;27371;42.686;23.362;2024-03-08T09:47:47;1.38;;;0.90;;
41687;SDS011;27371;42.686;23.362;2024-03-08T09:50:13;2.22;;;1.45;;
41687;SDS011;27371;42.686;23.362;2024-03-08T09:52:40;1.67;;;1.00;;
41687;SDS011;27371;42.686;23.362;2024-03-08T09:55:06;1.92;;;1.25;;
41687;SDS011;27371;42.686;23.362;2024-03-08T09:57:36;1.65;;;1.20;;
41687;SDS011;27371;42.686;23.362;2024-03-08T10:00:02;2.00;;;1.30;;
41687;SDS011;27371;42.686;23.362;2024-03-08T10:02:45;2.35;;;1.33;;
41687;SDS011;27371;42.686;23.362;2024-03-08T10:05:11;2.65;;;1.50;;
41687;SDS011;27371;42.686;23.362;2024-03-08T10:07:37;2.60;;;1.75;;
41687;SDS011;27371;42.686;23.362;2024-03-08T10:10:03;2.70;;;1.10;;
41687;SDS011;27371;42.686;23.362;2024-03-08T10:12:29;1.83;;;1.10;;
41687;SDS011;27371;42.686;23.362;2024-03-08T10:14:55;2.78;;;1.17;;
41687;SDS011;27371;42.686;23.362;2024-03-08T10:17:21;2.45;;;1.05;;
41687;SDS011;27371;42.686;23.362;2024-03-08T10:19:50;1.23;;;0.85;;
41687;SDS011;27371;42.686;23.362;2024-03-08T10:22:19;4.20;;;1.02;;
41687;SDS011;27371;42.686;23.362;2024-03-08T10:24:48;1.38;;;0.90;;
41687;SDS011;27371;42.686;23.362;2024-03-08T10:27:13;1.50;;;1.08;;
41687;SDS011;27371;42.686;23.362;2024-03-08T10:29:41;1.67;;;1.30;;
41687;SDS011;27371;42.686;23.362;2024-03-08T10:32:09;2.20;;;1.30;;
41687;SDS011;27371;42.686;23.362;2024-03-08T10:34:35;2.17;;;1.10;;
41687;SDS011;27371;42.686;23.362;2024-03-08T10:37:03;3.05;;;1.13;;
41687;SDS011;27371;42.686;23.362;2024-03-08T10:39:31;2.15;;;1.20;;
41687;SDS011;27371;42.686;23.362;2024-03-08T10:42:02;1.77;;;1.25;;
41687;SDS011;27371;42.686;23.362;2024-03-08T10:49:38;2.20;;;1.17;;
41687;SDS011;27371;42.686;23.362;2024-03-08T10:52:09;1.60;;;1.10;;
41687;SDS011;27371;42.686;23.362;2024-03-08T10:54:37;3.28;;;1.05;;
41687;SDS011;27371;42.686;23.362;2024-03-08T10:57:06;1.33;;;0.90;;
41687;SDS011;27371;42.686;23.362;2024-03-08T10:59:33;1.20;;;0.80;;
41687;SDS011;27371;42.686;23.362;2024-03-08T11:02:00;2.17;;;1.00;;
41687;SDS011;27371;42.686;23.362;2024-03-08T11:04:26;1.75;;;0.90;;
41687;SDS011;27371;42.686;23.362;2024-03-08T11:06:54;2.90;;;0.73;;
41687;SDS011;27371;42.686;23.362;2024-03-08T11:09:37;0.93;;;0.73;;
41687;SDS011;27371;42.686;23.362;2024-03-08T11:12:22;1.63;;;0.98;;
41687;SDS011;27371;42.686;23.362;2024-03-08T11:14:55;2.28;;;0.73;;
41687;SDS011;27371;42.686;23.362;2024-03-08T11:19:59;7.50;;;0.90;;
41687;SDS011;27371;42.686;23.362;2024-03-08T11:22:32;1.73;;;0.70;;
41687;SDS011;27371;42.686;23.362;2024-03-08T11:24:59;2.90;;;0.90;;
41687;SDS011;27371;42.686;23.362;2024-03-08T11:27:30;1.33;;;1.00;;
41687;SDS011;27371;42.686;23.362;2024-03-08T11:30:15;2.63;;;1.50;;
41687;SDS011;27371;42.686;23.362;2024-03-08T11:32:50;1.80;;;0.95;;
41687;SDS011;27371;42.686;23.362;2024-03-08T11:35:19;1.13;;;0.70;;
41687;SDS011;27371;42.686;23.362;2024-03-08T11:37:45;1.48;;;1.10;;
41687;SDS011;27371;42.686;23.362;2024-03-08T11:40:13;2.15;;;0.70;;
41687;SDS011;27371;42.686;23.362;2024-03-08T11:42:43;1.50;;;0.90;;
41687;SDS011;27371;42.686;23.362;2024-03-08T11:45:16;1.67;;;0.85;;
41687;SDS011;27371;42.686;23.362;2024-03-08T11:47:43;0.90;;;0.70;;
41687;SDS011;27371;42.686;23.362;2024-03-08T11:50:15;2.78;;;0.80;;
41687;SDS011;27371;42.686;23.362;2024-03-08T11:52:43;0.73;;;0.50;;
41687;SDS011;27371;42.686;23.362;2024-03-08T11:55:09;1.00;;;0.68;;
41687;SDS011;27371;42.686;23.362;2024-03-08T11:57:37;1.98;;;0.55;;
41687;SDS011;27371;42.686;23.362;2024-03-08T12:00:03;2.72;;;0.43;;
41687;SDS011;27371;42.686;23.362;2024-03-08T12:02:32;1.13;;;0.50;;
41687;SDS011;27371;42.686;23.362;2024-03-08T12:05:03;0.63;;;0.40;;
41687;SDS011;27371;42.686;23.362;2024-03-08T12:07:31;1.63;;;0.82;;
41687;SDS011;27371;42.686;23.362;2024-03-08T12:10:19;0.98;;;0.60;;
41687;SDS011;27371;42.686;23.362;2024-03-08T12:12:47;1.52;;;0.80;;
41687;SDS011;27371;42.686;23.362;2024-03-08T12:15:18;0.93;;;0.60;;
41687;SDS011;27371;42.686;23.362;2024-03-08T12:17:45;1.83;;;0.60;;
41687;SDS011;27371;42.686;23.362;2024-03-08T12:20:16;3.00;;;0.60;;
41687;SDS011;27371;42.686;23.362;2024-03-08T12:22:43;2.47;;;0.60;;
41687;SDS011;27371;42.686;23.362;2024-03-08T12:25:10;0.82;;;0.57;;
41687;SDS011;27371;42.686;23.362;2024-03-08T12:27:38;1.42;;;0.90;;
41687;SDS011;27371;42.686;23.362;2024-03-08T12:33:03;1.15;;;0.75;;
41687;SDS011;27371;42.686;23.362;2024-03-08T12:35:29;2.00;;;0.73;;
41687;SDS011;27371;42.686;23.362;2024-03-08T12:37:57;3.70;;;0.70;;
41687;SDS011;27371;42.686;23.362;2024-03-08T12:40:31;1.08;;;0.80;;
41687;SDS011;27371;42.686;23.362;2024-03-08T12:43:01;2.28;;;0.57;;
41687;SDS011;27371;42.686;23.362;2024-03-08T12:45:31;1.27;;;0.80;;
41687;SDS011;27371;42.686;23.362;2024-03-08T12:47:56;2.38;;;0.80;;
41687;SDS011;27371;42.686;23.362;2024-03-08T12:50:24;1.35;;;1.02;;
41687;SDS011;27371;42.686;23.362;2024-03-08T12:52:50;2.75;;;1.20;;
41687;SDS011;27371;42.686;23.362;2024-03-08T12:55:17;0.90;;;0.68;;
41687;SDS011;27371;42.686;23.362;2024-03-08T12:57:44;2.88;;;0.80;;
41687;SDS011;27371;42.686;23.362;2024-03-08T13:00:10;1.23;;;0.90;;
41687;SDS011;27371;42.686;23.362;2024-03-08T13:02:47;1.30;;;0.70;;
41687;SDS011;27371;42.686;23.362;2024-03-08T13:05:13;1.45;;;0.90;;
41687;SDS011;27371;42.686;23.362;2024-03-08T13:07:42;1.33;;;0.60;;
41687;SDS011;27371;42.686;23.362;2024-03-08T13:10:14;0.75;;;0.50;;
41687;SDS011;27371;42.686;23.362;2024-03-08T13:12:41;1.30;;;0.77;;
41687;SDS011;27371;42.686;23.362;2024-03-08T13:15:08;0.98;;;0.65;;
41687;SDS011;27371;42.686;23.362;2024-03-08T13:17:36;2.42;;;0.80;;
41687;SDS011;27371;42.686;23.362;2024-03-08T13:20:05;4.03;;;0.60;;
41687;SDS011;27371;42.686;23.362;2024-03-08T13:22:32;1.10;;;0.70;;
41687;SDS011;27371;42.686;23.362;2024-03-08T13:24:58;1.02;;;0.65;;
41687;SDS011;27371;42.686;23.362;2024-03-08T13:27:26;2.25;;;1.00;;
41687;SDS011;27371;42.686;23.362;2024-03-08T13:29:53;0.88;;;0.60;;
41687;SDS011;27371;42.686;23.362;2024-03-08T13:32:18;1.88;;;0.70;;
41687;SDS011;27371;42.686;23.362;2024-03-08T13:34:47;0.70;;;0.50;;
41687;SDS011;27371;42.686;23.362;2024-03-08T13:37:16;2.38;;;0.50;;
41687;SDS011;27371;42.686;23.362;2024-03-08T13:39:42;0.65;;;0.45;;
41687;SDS011;27371;42.686;23.362;2024-03-08T13:42:11;0.80;;;0.60;;
41687;SDS011;27371;42.686;23.362;2024-03-08T13:44:44;1.08;;;0.63;;
41687;SDS011;27371;42.686;23.362;2024-03-08T13:47:16;1.15;;;0.77;;
41687;SDS011;27371;42.686;23.362;2024-03-08T13:49:42;1.40;;;0.80;;
41687;SDS011;27371;42.686;23.362;2024-03-08T13:52:09;2.38;;;1.17;;
41687;SDS011;27371;42.686;23.362;2024-03-08T13:54:35;1.73;;;0.80;;
41687;SDS011;27371;42.686;23.362;2024-03-08T13:57:02;0.77;;;0.47;;
41687;SDS011;27371;42.686;23.362;2024-03-08T13:59:31;2.22;;;0.77;;
41687;SDS011;27371;42.686;23.362;2024-03-08T14:01:58;1.17;;;0.77;;
41687;SDS011;27371;42.686;23.362;2024-03-08T14:04:26;4.55;;;2.38;;
41687;SDS011;27371;42.686;23.362;2024-03-08T14:06:52;1.10;;;0.80;;
41687;SDS011;27371;42.686;23.362;2024-03-08T14:09:22;1.58;;;1.02;;
41687;SDS011;27371;42.686;23.362;2024-03-08T14:11:50;2.08;;;1.20;;
41687;SDS011;27371;42.686;23.362;2024-03-08T14:14:19;3.88;;;1.67;;
41687;SDS011;27371;42.686;23.362;2024-03-08T14:16:46;2.22;;;1.30;;
41687;SDS011;27371;42.686;23.362;2024-03-08T14:19:13;3.45;;;1.20;;
41687;SDS011;27371;42.686;23.362;2024-03-08T14:21:40;1.75;;;1.17;;
41687;SDS011;27371;42.686;23.362;2024-03-08T14:24:07;3.15;;;1.55;;
41687;SDS011;27371;42.686;23.362;2024-03-08T14:26:33;4.00;;;1.80;;
41687;SDS011;27371;42.686;23.362;2024-03-08T14:28:59;1.60;;;1.10;;
41687;SDS011;27371;42.686;23.362;2024-03-08T14:31:25;2.38;;;1.50;;
41687;SDS011;27371;42.686;23.362;2024-03-08T14:33:53;5.32;;;1.55;;
41687;SDS011;27371;42.686;23.362;2024-03-08T14:36:20;1.90;;;1.05;;
41687;SDS011;27371;42.686;23.362;2024-03-08T14:38:46;2.00;;;1.30;;
41687;SDS011;27371;42.686;23.362;2024-03-08T14:41:14;3.90;;;1.52;;
41687;SDS011;27371;42.686;23.362;2024-03-08T14:43:43;3.95;;;1.50;;
41687;SDS011;27371;42.686;23.362;2024-03-08T14:46:12;2.35;;;1.20;;
41687;SDS011;27371;42.686;23.362;2024-03-08T14:48:46;3.17;;;1.52;;